createdAt,value
2023-03-16T00:02:44.910Z,41.48
2023-03-16T00:07:48.347Z,41.85
2023-03-16T00:12:53.685Z,42.41
2023-03-16T00:17:58.541Z,42.26
2023-03-16T00:23:02.607Z,42.40
2023-03-16T00:28:06.084Z,42.57
2023-03-16T00:33:11.902Z,42.44
2023-03-16T00:38:15.319Z,42.66
2023-03-16T00:43:18.772Z,43.13
2023-03-16T00:48:24.410Z,43.68
2023-03-16T00:53:28.248Z,42.98
2023-03-16T00:58:35.620Z,43.16
2023-03-16T01:03:40.729Z,43.05
2023-03-16T01:08:44.969Z,43.19
2023-03-16T01:13:49.357Z,42.72
2023-03-16T01:18:55.059Z,41.86
2023-03-16T01:23:59.664Z,42.06
2023-03-16T01:29:03.257Z,42.09
2023-03-16T01:34:08.347Z,41.63
2023-03-16T01:39:11.951Z,41.65
2023-03-16T01:44:24.248Z,41.53
2023-03-16T01:49:32.673Z,41.61
2023-03-16T01:54:42.257Z,40.84
2023-03-16T01:59:49.335Z,41.08
2023-03-16T02:04:59.450Z,41.75
2023-03-16T02:10:06.001Z,41.68
2023-03-16T02:15:11.288Z,41.06
2023-03-16T02:20:26.472Z,40.87
2023-03-16T02:25:33.620Z,40.84
2023-03-16T02:30:38.461Z,40.99
2023-03-16T02:35:42.546Z,40.98
2023-03-16T02:40:47.078Z,41.09
2023-03-16T02:45:54.732Z,41.57
2023-03-16T02:51:00.714Z,41.55
2023-03-16T02:56:05.073Z,41.61
2023-03-16T03:01:12.619Z,41.24
2023-03-16T03:06:16.583Z,41.12
2023-03-16T03:11:20.562Z,41.07
2023-03-16T03:16:25.689Z,41.16
2023-03-16T03:21:30.655Z,40.85
2023-03-16T03:26:34.222Z,40.62
2023-03-16T03:31:40.122Z,40.74
2023-03-16T03:36:43.979Z,40.60
2023-03-16T03:41:47.535Z,40.37
2023-03-16T03:46:52.613Z,40.03
2023-03-16T03:51:59.013Z,39.96
2023-03-16T03:57:03.412Z,40.15
2023-03-16T04:02:08.403Z,40.32
2023-03-16T04:07:17.952Z,40.17
2023-03-16T04:12:23.306Z,40.11
2023-03-16T04:17:28.649Z,40.24
2023-03-16T04:22:35.486Z,39.82
2023-03-16T04:27:39.572Z,40.14
2023-03-16T04:32:45.859Z,41.19
2023-03-16T04:37:53.147Z,41.05
2023-03-16T04:43:01.643Z,40.66
2023-03-16T04:48:09.369Z,40.86
2023-03-16T04:53:14.410Z,41.39
2023-03-16T04:58:18.677Z,41.72
2023-03-16T05:03:25.707Z,41.91
2023-03-16T05:08:29.164Z,41.83
2023-03-16T05:13:32.746Z,41.37
2023-03-16T05:18:38.196Z,40.95
2023-03-16T05:23:41.849Z,41.22
2023-03-16T05:28:45.733Z,42.26
2023-03-16T05:33:54.150Z,42.17
2023-03-16T05:38:59.304Z,42.64
2023-03-16T05:44:13.532Z,42.62
2023-03-16T05:49:35.608Z,42.40
2023-03-16T05:54:44.170Z,42.90
2023-03-16T05:59:48.591Z,42.77
2023-03-16T06:04:53.908Z,42.52
2023-03-16T06:09:57.516Z,42.81
2023-03-16T06:15:01.958Z,42.38
2023-03-16T06:20:11.290Z,42.16
2023-03-16T06:25:16.905Z,41.69
2023-03-16T06:30:22.800Z,41.68
2023-03-16T06:35:28.203Z,41.20
2023-03-16T06:40:44.576Z,41.60
2023-03-16T06:45:48.148Z,41.04
2023-03-16T06:50:53.331Z,41.13
2023-03-16T06:56:01.133Z,41.01
2023-03-16T07:01:07.058Z,40.89
2023-03-16T07:06:12.096Z,40.25
2023-03-16T07:11:15.520Z,39.95
2023-03-16T07:16:19.006Z,39.63
2023-03-16T07:21:23.999Z,39.37
2023-03-16T07:26:27.905Z,39.86
2023-03-16T07:31:35.929Z,39.40
2023-03-16T07:36:45.512Z,39.65
2023-03-16T07:41:48.939Z,39.17
2023-03-16T07:46:55.752Z,39.00
2023-03-16T07:52:04.012Z,38.29
2023-03-16T07:57:14.752Z,37.25
2023-03-16T08:02:21.512Z,36.86
2023-03-16T08:07:27.544Z,37.41
2023-03-16T08:12:37.559Z,36.76
2023-03-16T08:17:42.363Z,36.34
2023-03-16T08:22:51.868Z,35.71
2023-03-16T08:28:00.651Z,35.33
2023-03-16T08:33:04.462Z,34.53
2023-03-16T08:38:09.901Z,34.41
2023-03-16T08:43:13.665Z,34.09
2023-03-16T08:48:18.332Z,33.31
2023-03-16T08:53:28.144Z,32.03
2023-03-16T08:58:32.968Z,31.74
2023-03-16T09:03:36.811Z,31.77
2023-03-16T09:08:41.918Z,30.88
2023-03-16T09:13:45.922Z,29.78
2023-03-16T09:18:49.274Z,28.79
2023-03-16T09:23:54.370Z,28.98
2023-03-16T09:28:57.993Z,28.85
2023-03-16T09:34:01.424Z,27.60
2023-03-16T09:39:06.213Z,28.27
2023-03-16T09:44:25.089Z,27.51
2023-03-16T09:49:30.516Z,26.93
2023-03-16T09:54:57.562Z,26.87
2023-03-16T10:00:39.763Z,27.13
2023-03-16T10:05:43.304Z,26.50
2023-03-16T10:11:15.333Z,25.82
2023-03-16T10:16:39.770Z,26.14
2023-03-16T10:21:43.643Z,25.21
2023-03-16T10:26:54.446Z,24.95
2023-03-16T10:32:01.426Z,24.57
2023-03-16T10:37:05.981Z,25.07
2023-03-16T10:42:16.405Z,23.84
2023-03-16T10:47:24.013Z,24.62
2023-03-16T10:52:35.413Z,23.40
2023-03-16T10:57:45.395Z,22.59
2023-03-16T11:02:50.074Z,23.51
2023-03-16T11:07:58.635Z,23.83
2023-03-16T11:13:12.505Z,23.87
2023-03-16T11:18:26.694Z,23.80
2023-03-16T11:23:34.068Z,23.65
2023-03-16T11:28:41.724Z,23.08
2023-03-16T11:33:45.209Z,23.99
2023-03-16T11:38:55.149Z,23.18
2023-03-16T11:44:03.868Z,23.74
2023-03-16T11:49:28.436Z,23.72
2023-03-16T11:54:50.363Z,22.81
2023-03-16T12:00:06.015Z,23.04
2023-03-16T12:05:24.699Z,23.64
2023-03-16T12:10:31.053Z,24.38
2023-03-16T12:15:41.848Z,22.83
2023-03-16T12:20:49.856Z,22.55
2023-03-16T12:25:53.531Z,23.99
2023-03-16T12:31:04.450Z,23.09
2023-03-16T12:36:23.916Z,23.85
2023-03-16T12:41:33.936Z,24.76
2023-03-16T12:46:47.935Z,23.37
2023-03-16T12:52:00.460Z,23.22
2023-03-16T12:57:05.683Z,23.44
2023-03-16T13:02:16.537Z,22.42
2023-03-16T13:07:22.622Z,23.55
2023-03-16T13:12:28.765Z,23.78
2023-03-16T13:17:34.418Z,23.71
2023-03-16T13:22:49.951Z,22.75
2023-03-16T13:27:55.796Z,23.07
2023-03-16T13:33:20.421Z,23.08
2023-03-16T13:38:27.587Z,23.42
2023-03-16T13:43:32.930Z,21.87
2023-03-16T13:48:40.217Z,21.92
2023-03-16T13:53:44.544Z,21.62
2023-03-16T13:58:49.301Z,22.13
2023-03-16T14:03:56.667Z,21.88
2023-03-16T14:09:03.331Z,21.75
2023-03-16T14:14:15.797Z,21.52
2023-03-16T14:19:24.324Z,22.72
2023-03-16T14:24:32.188Z,23.21
2023-03-16T14:29:36.270Z,22.89
2023-03-16T14:34:41.070Z,23.61
2023-03-16T14:39:44.550Z,24.22
2023-03-16T14:44:49.576Z,24.24
2023-03-16T14:49:54.660Z,24.73
2023-03-16T14:54:58.911Z,24.34
2023-03-16T15:00:02.318Z,25.08
2023-03-16T15:05:08.896Z,24.98
2023-03-16T15:10:21.967Z,24.91
2023-03-16T15:15:27.427Z,24.53
2023-03-16T15:20:35.542Z,25.24
2023-03-16T15:25:41.245Z,25.66
2023-03-16T15:30:45.313Z,25.98
2023-03-16T15:35:51.302Z,25.91
2023-03-16T15:40:55.329Z,25.16
2023-03-16T15:46:00.349Z,26.23
2023-03-16T15:51:08.520Z,25.93
2023-03-16T15:56:13.361Z,26.33
2023-03-16T16:01:21.498Z,26.08
2023-03-16T16:06:27.397Z,26.86
2023-03-16T16:11:30.916Z,26.61
2023-03-16T16:16:34.660Z,26.17
2023-03-16T16:21:39.444Z,26.03
2023-03-16T16:26:52.026Z,26.09
2023-03-16T16:31:58.005Z,25.90
2023-03-16T16:37:02.756Z,26.90
2023-03-16T16:42:06.993Z,27.10
2023-03-16T16:47:19.905Z,26.23
2023-03-16T16:52:27.950Z,25.69
2023-03-16T16:57:31.704Z,25.62
2023-03-16T17:02:43.258Z,25.29
2023-03-16T17:07:48.525Z,25.61
2023-03-16T17:12:53.352Z,25.67
2023-03-16T17:18:02.936Z,26.52
2023-03-16T17:23:27.989Z,25.63
2023-03-16T17:28:36.112Z,26.46
2023-03-16T17:33:40.514Z,26.51
2023-03-16T17:38:45.542Z,26.81
2023-03-16T17:43:49.236Z,27.27
2023-03-16T17:48:53.073Z,27.50
2023-03-16T17:53:58.151Z,27.80
2023-03-16T17:59:05.399Z,28.23
2023-03-16T18:04:17.361Z,28.29
2023-03-16T18:09:22.306Z,28.22
2023-03-16T18:14:35.199Z,27.53
2023-03-16T18:19:39.689Z,27.89
2023-03-16T18:24:44.932Z,27.79
2023-03-16T18:29:48.712Z,28.43
2023-03-16T18:34:52.776Z,28.68
2023-03-16T18:39:57.602Z,28.13
2023-03-16T18:45:01.281Z,27.96
2023-03-16T18:50:05.185Z,28.52
2023-03-16T18:55:16.508Z,28.70
2023-03-16T19:00:22.372Z,28.89
2023-03-16T19:05:35.530Z,29.06
2023-03-16T19:10:43.879Z,29.23
2023-03-16T19:15:47.771Z,29.29
2023-03-16T19:20:55.122Z,29.95
2023-03-16T19:26:00.091Z,30.33
2023-03-16T19:31:18.644Z,30.52
2023-03-16T19:36:38.095Z,30.63
2023-03-16T19:41:49.171Z,30.69
2023-03-16T19:46:55.496Z,31.17
2023-03-16T19:51:59.148Z,31.25
2023-03-16T19:57:07.332Z,31.59
2023-03-16T20:02:24.851Z,31.05
2023-03-16T20:07:28.290Z,31.16
2023-03-16T20:12:33.579Z,31.70
2023-03-16T20:17:37.446Z,31.30
2023-03-16T20:22:40.874Z,31.25
2023-03-16T20:27:46.493Z,31.90
2023-03-16T20:32:50.639Z,31.92
2023-03-16T20:37:54.065Z,31.89
2023-03-16T20:42:58.911Z,32.17
2023-03-16T20:48:02.644Z,31.92
2023-03-16T20:53:06.101Z,31.93
2023-03-16T20:58:19.623Z,32.11
2023-03-16T21:03:24.694Z,32.11
2023-03-16T21:08:28.601Z,31.97
2023-03-16T21:13:34.355Z,32.08
2023-03-16T21:18:38.010Z,31.75
2023-03-16T21:23:41.634Z,32.53
2023-03-16T21:28:51.903Z,31.95
2023-03-16T21:33:55.955Z,31.83
2023-03-16T21:38:59.403Z,31.89
2023-03-16T21:44:04.404Z,32.42
2023-03-16T21:49:11.140Z,32.59
2023-03-16T21:54:15.392Z,32.26
2023-03-16T21:59:20.236Z,32.37
2023-03-16T22:04:23.764Z,32.75
2023-03-16T22:09:29.962Z,32.75
2023-03-16T22:14:34.941Z,32.66
2023-03-16T22:19:38.419Z,32.90
2023-03-16T22:24:41.990Z,33.24
2023-03-16T22:29:46.905Z,33.00
2023-03-16T22:34:52.547Z,33.11
2023-03-16T22:39:57.276Z,33.09
2023-03-16T22:45:02.275Z,34.17
2023-03-16T22:50:07.503Z,34.09
2023-03-16T22:55:16.708Z,33.74
2023-03-16T23:00:22.078Z,33.39
2023-03-16T23:05:27.811Z,33.91
2023-03-16T23:10:32.271Z,33.54
2023-03-16T23:15:38.248Z,34.14
2023-03-16T23:20:41.913Z,34.74
2023-03-16T23:25:46.113Z,35.33
2023-03-16T23:30:51.124Z,36.12
2023-03-16T23:35:54.519Z,34.47
2023-03-16T23:40:57.947Z,35.59
2023-03-16T23:46:02.969Z,34.54
2023-03-16T23:51:07.104Z,34.41
2023-03-16T23:56:10.644Z,34.03
